Time;durP1;ratioP1;P1;durP2;ratioP2;P2;SDS_P1;SDS_P2;PMS_P1;PMS_P2;Temp;Humidity;BMP_temperature;BMP_pressure;BME280_temperature;BME280_humidity;BME280_pressure;Samples;Min_cycle;Max_cycle;Signal;HPM_P1;HPM_P2
2023/05/20 00:01:24;;;;;;;8.80;7.90;;;;;;;15.24;91.18;95176.19;5015314;28;20448;-85
2023/05/20 00:03:52;;;;;;;16.40;8.57;;;;;;;15.17;91.18;95165.41;5015629;28;20443;-85
2023/05/20 00:06:19;;;;;;;13.27;7.83;;;;;;;15.18;90.43;95167.06;5015668;28;20452;-84
2023/05/20 00:08:45;;;;;;;9.37;8.37;;;;;;;15.17;90.19;95175.16;5015057;28;20871;-84
2023/05/20 00:11:12;;;;;;;10.40;7.73;;;;;;;15.19;90.11;95173.19;5014739;28;20452;-85
2023/05/20 00:13:39;;;;;;;8.87;7.30;;;;;;;15.14;89.90;95167.53;5015205;28;20494;-85
2023/05/20 00:16:06;;;;;;;9.97;8.30;;;;;;;15.06;89.98;95170.09;5016133;28;20496;-85
2023/05/20 00:18:33;;;;;;;10.20;8.37;;;;;;;15.04;89.46;95178.19;5014823;28;20869;-85
2023/05/20 00:21:01;;;;;;;8.93;7.60;;;;;;;15.03;90.43;95173.84;5014614;28;20854;-85
2023/05/20 00:23:28;;;;;;;11.83;8.37;;;;;;;15.03;90.49;95178.28;5015576;28;20842;-85
2023/05/20 00:25:54;;;;;;;10.93;8.03;;;;;;;15.04;89.78;95175.53;5015221;28;20955;-85
2023/05/20 00:28:22;;;;;;;9.60;8.13;;;;;;;15.06;89.21;95173.56;5015078;28;20474;-84
2023/05/20 00:30:49;;;;;;;9.20;7.37;;;;;;;15.06;89.97;95167.44;5015902;28;20494;-85
2023/05/20 00:33:16;;;;;;;9.97;8.70;;;;;;;15.08;90.38;95170.78;5015579;28;20493;-85
2023/05/20 00:56:23;;;;;;;10.13;8.00;;;;;;;14.72;89.95;95133.72;5014705;28;20462;-84
2023/05/20 00:58:51;;;;;;;10.57;8.53;;;;;;;14.67;89.64;95145.72;5014792;28;20453;-85
2023/05/20 01:01:17;;;;;;;14.40;8.73;;;;;;;14.59;91.61;95141.19;5014837;28;20434;-85
2023/05/20 01:03:44;;;;;;;9.03;8.13;;;;;;;14.55;91.68;95147.75;5014822;28;20497;-85
2023/05/20 01:06:11;;;;;;;9.00;8.20;;;;;;;14.53;91.38;95145.25;5014801;28;20501;-85
2023/05/20 01:08:38;;;;;;;9.87;7.90;;;;;;;14.54;91.75;95140.81;5015095;28;20434;-85
2023/05/20 01:11:09;;;;;;;10.20;7.40;;;;;;;14.57;91.62;95151.91;5014407;28;20440;-85
2023/05/20 01:13:45;;;;;;;9.13;7.43;;;;;;;14.61;90.88;95157.72;5014289;28;20432;-84
2023/05/20 01:16:17;;;;;;;13.13;8.03;;;;;;;14.62;89.97;95150.63;5014871;28;20497;-85
2023/05/20 01:22:11;;;;;;;9.53;7.80;;;;;;;14.70;89.48;95156.81;5013962;28;20965;-85
2023/05/20 01:24:40;;;;;;;11.90;7.60;;;;;;;14.73;90.27;95158.34;5014166;28;20439;-85
2023/05/20 01:27:09;;;;;;;10.20;8.40;;;;;;;14.73;89.94;95155.69;5014430;28;20440;-84
2023/05/20 01:29:36;;;;;;;8.90;7.93;;;;;;;14.69;89.93;95152.53;5014751;28;20442;-85
2023/05/20 01:48:52;;;;;;;14.10;7.40;;;;;;;14.36;91.38;95150.47;5013316;28;20435;-85
2023/05/20 01:51:19;;;;;;;7.90;7.10;;;;;;;14.35;91.68;95148.78;5014370;28;20937;-85
2023/05/20 01:53:46;;;;;;;9.57;7.90;;;;;;;14.36;91.35;95146.00;5013903;28;20435;-85
2023/05/20 01:56:13;;;;;;;11.80;8.97;;;;;;;14.39;91.61;95139.59;5013583;28;20556;-85
2023/05/20 01:58:40;;;;;;;15.00;8.40;;;;;;;14.40;91.47;95142.09;5013982;28;20895;-85
2023/05/20 02:01:06;;;;;;;14.10;8.27;;;;;;;14.45;91.41;95146.97;5013955;28;20452;-85
2023/05/20 02:03:33;;;;;;;12.00;8.30;;;;;;;14.42;90.82;95144.59;5013687;28;20928;-85
2023/05/20 02:06:01;;;;;;;12.17;8.50;;;;;;;14.39;91.06;95140.44;5013856;28;20443;-85
2023/05/20 02:08:28;;;;;;;12.00;7.77;;;;;;;14.36;91.02;95129.34;5013959;28;20435;-85
2023/05/20 02:14:16;;;;;;;15.67;8.00;;;;;;;14.25;91.60;95136.47;5013523;28;20438;-84
2023/05/20 02:16:43;;;;;;;10.80;7.63;;;;;;;14.19;92.04;95136.25;5013866;28;20502;-85
2023/05/20 02:19:11;;;;;;;12.67;8.30;;;;;;;14.12;91.70;95133.34;5014450;28;20435;-85
2023/05/20 02:21:40;;;;;;;16.77;8.03;;;;;;;14.07;92.56;95132.94;5013969;28;20450;-85
2023/05/20 02:24:07;;;;;;;10.20;8.13;;;;;;;14.05;93.16;95137.53;5017277;28;20535;-85
2023/05/20 02:26:34;;;;;;;9.57;7.70;;;;;;;14.06;92.96;95135.72;5017933;28;20906;-84
2023/05/20 02:29:01;;;;;;;9.43;8.13;;;;;;;14.02;92.68;95137.00;5017767;28;20428;-85
2023/05/20 02:31:27;;;;;;;11.63;8.20;;;;;;;14.01;92.77;95133.53;5018384;28;20445;-85
2023/05/20 02:33:54;;;;;;;11.10;7.00;;;;;;;14.04;93.26;95130.59;5017352;28;20905;-85
2023/05/20 02:36:21;;;;;;;8.50;7.23;;;;;;;14.04;92.68;95122.69;5017169;28;21000;-85
2023/05/20 02:38:49;;;;;;;8.50;7.60;;;;;;;14.04;92.75;95132.41;5017281;28;20484;-85
2023/05/20 02:41:16;;;;;;;11.53;8.67;;;;;;;13.96;92.07;95133.13;5017682;28;20429;-85
2023/05/20 02:43:44;;;;;;;11.03;7.60;;;;;;;13.97;92.81;95131.31;5017253;28;20442;-85
2023/05/20 02:46:11;;;;;;;10.20;8.17;;;;;;;13.97;92.94;95136.59;5017580;28;20443;-85
2023/05/20 02:48:38;;;;;;;8.43;7.30;;;;;;;13.99;92.31;95134.66;5017891;28;20447;-85
2023/05/20 02:51:05;;;;;;;8.60;7.70;;;;;;;13.95;91.65;95129.66;5017665;28;20453;-85
2023/05/20 02:53:32;;;;;;;12.00;7.70;;;;;;;13.87;91.39;95123.44;5017362;28;20439;-87
2023/05/20 02:56:00;;;;;;;8.87;7.40;;;;;;;13.91;92.60;95133.56;5017563;28;20482;-85
2023/05/20 02:58:28;;;;;;;11.23;8.30;;;;;;;13.90;91.71;95123.16;5016837;28;20481;-86
2023/05/20 03:00:56;;;;;;;8.60;7.70;;;;;;;13.86;91.53;95132.31;5018196;28;20453;-85
2023/05/20 03:03:25;;;;;;;9.13;7.40;;;;;;;13.83;91.43;95128.16;5017167;28;20528;-86
2023/05/20 03:05:52;;;;;;;16.33;7.57;;;;;;;13.82;91.35;95131.78;5017242;28;20779;-85
2023/05/20 03:08:21;;;;;;;11.83;7.73;;;;;;;13.84;93.30;95131.63;5017201;28;20504;-85
2023/05/20 03:10:48;;;;;;;8.13;7.33;;;;;;;13.89;93.09;95139.97;5016628;28;20458;-85
2023/05/20 03:13:16;;;;;;;8.50;7.63;;;;;;;13.88;93.01;95136.50;5017139;28;20451;-86
2023/05/20 03:15:44;;;;;;;7.73;6.50;;;;;;;13.95;92.79;95139.41;5017139;28;20965;-85
2023/05/20 03:18:12;;;;;;;9.67;7.40;;;;;;;14.04;93.15;95146.44;5017293;28;20469;-86
2023/05/20 03:20:40;;;;;;;8.27;7.07;;;;;;;14.14;92.70;95139.28;5016752;28;20530;-86
2023/05/20 03:23:08;;;;;;;10.37;7.40;;;;;;;14.18;90.19;95143.34;5017083;28;20456;-82
2023/05/20 03:25:34;;;;;;;10.07;7.20;;;;;;;14.21;89.91;95140.41;5019130;28;20446;-83
2023/05/20 03:28:01;;;;;;;7.83;6.93;;;;;;;14.21;89.77;95145.69;5021072;28;20434;-83
2023/05/20 03:30:30;;;;;;;8.00;7.03;;;;;;;14.33;91.32;95142.84;5021983;28;20448;-84
2023/05/20 03:32:57;;;;;;;7.00;6.30;;;;;;;14.35;88.95;95143.50;5026290;28;20481;-84
2023/05/20 03:35:24;;;;;;;8.13;7.37;;;;;;;14.38;88.49;95151.13;5019976;28;20763;-84
2023/05/20 03:37:52;;;;;;;9.83;6.60;;;;;;;14.43;89.29;95155.03;5022015;28;20558;-85
2023/05/20 03:40:19;;;;;;;10.10;7.67;;;;;;;14.43;89.06;95162.94;5018118;28;20486;-85
2023/05/20 03:42:46;;;;;;;7.60;6.90;;;;;;;14.54;88.72;95154.84;5018324;28;20443;-85
2023/05/20 03:45:13;;;;;;;16.43;8.90;;;;;;;15.14;94.58;95154.31;5017538;28;20474;-83
2023/05/20 03:47:41;;;;;;;10.97;8.23;;;;;;;16.01;92.26;95162.28;5018759;28;20447;-82
2023/05/20 03:50:08;;;;;;;11.83;7.10;;;;;;;16.95;85.79;95156.06;5018645;28;20455;-83
2023/05/20 03:52:35;;;;;;;12.63;8.37;;;;;;;17.91;78.31;95170.38;5017647;28;20439;-82
2023/05/20 03:55:03;;;;;;;12.23;9.30;;;;;;;18.29;73.59;95181.28;5017496;28;20442;-83
2023/05/20 03:57:31;;;;;;;11.40;7.33;;;;;;;18.92;71.44;95176.91;5017341;28;20489;-84
2023/05/20 03:59:57;;;;;;;9.80;7.23;;;;;;;19.50;68.15;95185.19;5019599;28;20446;-83
2023/05/20 04:02:24;;;;;;;15.70;7.70;;;;;;;19.95;68.29;95172.03;5016964;28;20446;-82
2023/05/20 04:04:56;;;;;;;13.40;6.57;;;;;;;20.75;66.67;95187.38;5018202;28;20467;-82
2023/05/20 04:07:23;;;;;;;14.07;7.00;;;;;;;21.20;64.49;95186.31;4984372;28;20454;-82
2023/05/20 04:09:51;;;;;;;12.77;8.83;;;;;;;21.58;62.40;95198.47;5017126;28;20447;-82
2023/05/20 04:12:19;;;;;;;12.37;9.63;;;;;;;21.76;60.61;95191.84;5015640;28;20452;-84
2023/05/20 04:14:48;;;;;;;9.60;8.60;;;;;;;21.96;61.00;95190.16;5016115;28;20458;-85
2023/05/20 04:17:15;;;;;;;10.97;8.50;;;;;;;22.17;60.42;95184.81;5016238;28;20537;-87
2023/05/20 04:19:43;;;;;;;8.30;7.50;;;;;;;22.40;60.57;95189.94;5016240;28;20450;-85
2023/05/20 04:22:11;;;;;;;11.00;8.77;;;;;;;22.58;57.92;95191.28;5016710;28;20443;-87
2023/05/20 04:24:38;;;;;;;10.67;8.67;;;;;;;22.40;57.58;95186.44;5014633;28;20508;-86
2023/05/20 04:27:06;;;;;;;10.13;8.93;;;;;;;22.10;59.23;95178.63;5015710;28;20458;-83
2023/05/20 04:29:33;;;;;;;11.17;7.40;;;;;;;21.90;58.79;95181.09;5029112;28;20456;-86
2023/05/20 04:32:00;;;;;;;7.23;6.63;;;;;;;21.86;58.48;95185.16;5015091;28;20486;-87
2023/05/20 04:34:29;;;;;;;7.83;6.87;;;;;;;21.84;57.52;95181.03;5015406;28;20923;-87
2023/05/20 04:36:56;;;;;;;7.03;5.73;;;;;;;21.71;57.53;95180.94;5015243;28;20541;-86
2023/05/20 04:39:25;;;;;;;8.27;6.10;;;;;;;21.71;57.27;95181.75;5016081;28;20489;-87
2023/05/20 04:41:53;;;;;;;10.07;6.13;;;;;;;21.85;57.15;95182.69;5014982;28;20442;-87
2023/05/20 04:44:21;;;;;;;11.70;6.20;;;;;;;21.93;58.07;95183.38;5015089;28;20207;-87
2023/05/20 04:46:48;;;;;;;7.80;5.93;;;;;;;21.97;56.71;95189.16;4996732;28;20446;-87
2023/05/20 04:49:15;;;;;;;7.80;6.07;;;;;;;22.01;56.73;95195.78;5015415;28;20469;-87
2023/05/20 04:51:42;;;;;;;11.20;5.60;;;;;;;22.11;56.36;95200.81;4996834;28;20497;-87
2023/05/20 04:54:09;;;;;;;12.30;6.80;;;;;;;22.18;57.11;95197.16;5015425;28;20867;-87
2023/05/20 04:56:37;;;;;;;6.23;5.53;;;;;;;22.29;57.24;95200.34;5015371;28;20501;-88
2023/05/20 04:59:04;;;;;;;8.20;5.93;;;;;;;22.42;56.26;95195.09;4997787;28;20446;-87
2023/05/20 05:08:20;;;;;;;9.00;6.73;;;;;;;23.01;56.43;95192.78;5014889;28;20443;-87
2023/05/20 05:10:47;;;;;;;9.17;7.43;;;;;;;23.26;55.33;95195.75;5015213;28;20433;-87
2023/05/20 05:13:15;;;;;;;17.90;9.10;;;;;;;23.34;55.07;95205.47;5014824;28;20490;-87
2023/05/20 05:15:41;;;;;;;9.67;8.30;;;;;;;23.45;55.18;95197.69;5014606;28;20472;-87
2023/05/20 05:18:09;;;;;;;11.00;6.97;;;;;;;23.63;53.73;95196.31;5014183;28;20529;-87
2023/05/20 05:20:36;;;;;;;7.60;5.93;;;;;;;23.79;53.83;95195.94;5014568;28;20940;-86
2023/05/20 05:23:02;;;;;;;11.70;7.23;;;;;;;23.77;53.91;95189.94;4992698;28;20467;-87
2023/05/20 05:25:29;;;;;;;7.10;6.27;;;;;;;23.88;52.63;95178.59;5008674;28;20504;-85
2023/05/20 05:27:56;;;;;;;10.63;5.63;;;;;;;23.89;51.37;95184.78;5014830;28;20869;-85
2023/05/20 05:30:24;;;;;;;8.30;5.73;;;;;;;23.87;51.79;95185.00;5014633;28;20843;-89
2023/05/20 05:32:51;;;;;;;11.50;6.00;;;;;;;24.00;51.82;95190.38;5014845;28;20464;-86
2023/05/20 05:35:18;;;;;;;9.93;6.10;;;;;;;24.21;51.22;95181.28;5014412;28;20480;-86
2023/05/20 05:37:45;;;;;;;8.63;5.83;;;;;;;24.42;51.67;95174.09;4997235;28;20475;-86
2023/05/20 05:40:12;;;;;;;8.80;6.17;;;;;;;24.56;51.29;95173.84;5014021;28;20439;-86
2023/05/20 05:42:39;;;;;;;6.10;5.50;;;;;;;24.74;50.63;95172.38;4997052;28;20458;-87
2023/05/20 05:45:07;;;;;;;6.00;5.40;;;;;;;24.99;50.06;95181.41;5015248;28;20446;-86
2023/05/20 05:47:54;;;;;;;6.30;5.73;;;;;;;25.20;49.45;95177.63;5015556;28;20443;-86
2023/05/20 05:50:21;;;;;;;5.93;5.30;;;;;;;25.23;49.13;95178.03;5014647;28;20843;-86
2023/05/20 05:52:47;;;;;;;6.73;6.03;;;;;;;25.38;49.90;95176.91;5014885;28;20866;-88
2023/05/20 05:55:14;;;;;;;7.20;4.87;;;;;;;25.66;49.22;95177.38;5015020;28;20997;-87
2023/05/20 05:57:41;;;;;;;9.13;5.53;;;;;;;25.92;49.51;95169.16;5013155;28;20495;-87
2023/05/20 06:00:09;;;;;;;7.63;5.40;;;;;;;26.09;47.77;95169.44;5014186;28;20450;-85
2023/05/20 06:02:36;;;;;;;8.60;5.90;;;;;;;26.15;47.25;95163.19;4996565;28;20470;-86
2023/05/20 06:05:05;;;;;;;7.67;6.03;;;;;;;26.27;48.26;95157.91;5014066;28;20477;-86
2023/05/20 06:10:53;;;;;;;10.87;5.90;;;;;;;26.73;46.67;95156.66;5015229;28;20465;-86
2023/05/20 06:13:20;;;;;;;8.57;5.53;;;;;;;26.88;48.11;95150.91;5015074;28;20779;-86
2023/05/20 06:15:49;;;;;;;11.83;5.87;;;;;;;26.99;54.00;95153.72;5014901;28;20479;-87
2023/05/20 06:18:16;;;;;;;18.73;6.30;;;;;;;27.15;50.09;95150.38;5014731;28;20565;-85
2023/05/20 06:20:44;;;;;;;8.47;5.90;;;;;;;27.30;47.02;95144.63;5015680;28;21277;-85
2023/05/20 06:23:11;;;;;;;16.07;6.80;;;;;;;27.39;47.14;95147.81;5015293;28;21004;-88
2023/05/20 06:25:38;;;;;;;117.20;14.30;;;;;;;27.57;48.32;95153.16;5015163;28;20451;-88
2023/05/20 06:28:05;;;;;;;71.60;10.73;;;;;;;27.65;44.95;95141.25;5014399;28;20498;-88
2023/05/20 06:30:31;;;;;;;122.10;13.67;;;;;;;27.79;47.36;95141.91;4979866;28;20459;-89
2023/05/20 06:32:58;;;;;;;53.00;10.10;;;;;;;27.92;45.67;95141.69;5013748;28;21081;-86
2023/05/20 06:35:25;;;;;;;9.07;6.20;;;;;;;27.90;42.95;95141.09;4979092;28;20436;-86
2023/05/20 06:37:54;;;;;;;9.67;8.10;;;;;;;27.80;42.91;95136.28;5013496;28;20549;-86
2023/05/20 06:40:20;;;;;;;31.13;9.17;;;;;;;27.71;45.41;95133.06;5013802;28;20462;-86
2023/05/20 06:42:47;;;;;;;51.83;9.73;;;;;;;27.65;45.24;95127.78;5011931;28;20863;-86
2023/05/20 06:45:14;;;;;;;9.93;6.30;;;;;;;27.55;44.85;95122.91;5013646;28;20443;-85
2023/05/20 06:47:41;;;;;;;12.70;7.20;;;;;;;27.01;44.11;95115.78;5012505;28;20444;-85
2023/05/20 06:50:08;;;;;;;7.77;6.67;;;;;;;26.86;43.51;95121.50;5011793;28;20497;-86
2023/05/20 06:52:35;;;;;;;6.90;6.20;;;;;;;26.46;45.25;95121.94;5011695;28;21024;-86
2023/05/20 06:55:03;;;;;;;8.77;6.70;;;;;;;26.31;46.09;95129.53;5011830;28;20501;-86
2023/05/20 06:57:30;;;;;;;10.17;6.40;;;;;;;25.93;46.25;95130.47;5010751;28;20505;-85
2023/05/20 06:59:56;;;;;;;7.17;6.47;;;;;;;25.80;47.86;95133.28;5013474;28;20471;-86
2023/05/20 07:02:23;;;;;;;9.73;7.60;;;;;;;26.13;47.92;95126.78;5013127;28;20871;-85
2023/05/20 07:04:50;;;;;;;9.23;6.70;;;;;;;26.32;47.19;95127.66;5012973;28;20431;-87
2023/05/20 07:07:17;;;;;;;6.73;5.83;;;;;;;26.45;47.04;95123.00;5011438;28;20451;-85
2023/05/20 07:09:44;;;;;;;7.77;6.13;;;;;;;26.74;47.52;95126.00;5015562;28;20506;-85
2023/05/20 07:12:12;;;;;;;7.17;6.43;;;;;;;26.27;45.87;95125.63;5016629;28;20459;-87
2023/05/20 07:14:39;;;;;;;10.33;6.50;;;;;;;26.28;44.00;95115.69;5016538;28;20447;-86
2023/05/20 07:17:06;;;;;;;6.73;6.03;;;;;;;25.91;46.23;95124.47;5016178;28;20838;-85
2023/05/20 07:19:33;;;;;;;10.43;6.60;;;;;;;25.22;47.30;95114.59;5017051;28;20486;-86
2023/05/20 07:22:00;;;;;;;8.77;6.90;;;;;;;24.93;48.37;95120.50;4998421;28;20474;-86
2023/05/20 07:24:27;;;;;;;7.90;7.20;;;;;;;24.59;49.47;95117.09;5016016;28;20513;-85
2023/05/20 07:26:53;;;;;;;7.83;7.03;;;;;;;24.98;47.01;95112.63;5016286;28;20443;-85
2023/05/20 07:29:22;;;;;;;7.40;6.70;;;;;;;24.83;47.65;95112.03;5016112;28;20818;-85
2023/05/20 07:31:48;;;;;;;8.63;7.30;;;;;;;24.75;50.23;95104.25;5016649;28;20451;-86
2023/05/20 07:34:15;;;;;;;13.37;7.30;;;;;;;24.75;48.66;95105.06;5016182;28;20462;-86
2023/05/20 07:36:43;;;;;;;8.33;7.23;;;;;;;24.61;48.51;95114.22;5016444;28;20518;-86
2023/05/20 07:39:10;;;;;;;10.47;6.50;;;;;;;24.81;50.27;95109.56;5016066;28;20447;-86
2023/05/20 07:41:37;;;;;;;11.03;6.87;;;;;;;25.02;52.66;95103.94;4997945;28;20534;-85
2023/05/20 07:44:05;;;;;;;9.63;6.70;;;;;;;25.42;49.52;95111.78;4982103;28;20530;-85
2023/05/20 07:46:34;;;;;;;9.80;6.93;;;;;;;25.64;49.72;95117.63;5016241;28;20506;-86
2023/05/20 07:49:01;;;;;;;12.33;6.67;;;;;;;25.19;49.21;95106.16;5016338;28;20518;-86
2023/05/20 07:51:27;;;;;;;10.90;7.53;;;;;;;25.48;49.87;95110.09;5015863;28;20467;-82
2023/05/20 07:53:54;;;;;;;8.53;7.00;;;;;;;25.27;48.77;95117.44;5016172;28;20443;-83
2023/05/20 07:56:21;;;;;;;9.40;6.30;;;;;;;24.90;48.65;95100.25;5015763;28;20839;-83
2023/05/20 07:58:52;;;;;;;11.90;6.37;;;;;;;24.63;47.47;95112.97;5015715;28;20522;-84
2023/05/20 08:01:20;;;;;;;8.60;6.70;;;;;;;24.57;51.34;95104.91;5015705;28;20992;-83
2023/05/20 08:03:48;;;;;;;11.07;8.47;;;;;;;24.68;51.39;95110.47;5015612;28;20462;-83
2023/05/20 08:06:14;;;;;;;12.00;7.43;;;;;;;24.66;51.95;95109.84;5015945;28;20494;-83
2023/05/20 08:08:41;;;;;;;10.13;7.33;;;;;;;24.64;52.52;95101.19;5015975;28;20443;-87
2023/05/20 08:11:09;;;;;;;7.33;6.67;;;;;;;24.79;50.18;95100.09;5015554;28;20448;-83
2023/05/20 08:13:36;;;;;;;16.13;8.53;;;;;;;24.90;52.16;95092.22;5015405;28;20487;-84
2023/05/20 08:16:04;;;;;;;10.67;7.57;;;;;;;24.53;54.94;95104.50;5015543;28;20511;-84
2023/05/20 08:18:31;;;;;;;8.57;7.47;;;;;;;24.58;55.15;95102.03;5015168;28;20490;-83
2023/05/20 08:20:59;;;;;;;15.07;7.50;;;;;;;24.61;50.89;95098.94;5014574;28;20458;-84
2023/05/20 08:23:26;;;;;;;12.13;7.83;;;;;;;24.77;52.03;95105.66;5015631;28;20447;-83
2023/05/20 08:25:53;;;;;;;16.73;7.60;;;;;;;24.54;49.65;95095.41;5015028;28;20440;-84
2023/05/20 08:28:20;;;;;;;11.13;8.40;;;;;;;24.53;50.13;95101.00;5015021;28;20470;-84
2023/05/20 08:30:47;;;;;;;8.83;7.37;;;;;;;23.89;51.93;95097.16;5015035;28;20543;-84
2023/05/20 08:33:14;;;;;;;11.30;8.60;;;;;;;23.95;52.02;95090.97;5015312;28;20523;-82
2023/05/20 08:35:41;;;;;;;9.93;7.23;;;;;;;24.17;51.63;95096.09;5014878;28;20818;-85
2023/05/20 08:38:09;;;;;;;12.10;8.00;;;;;;;24.09;54.12;95086.44;5015303;28;20494;-84
2023/05/20 08:40:36;;;;;;;10.43;6.80;;;;;;;24.35;55.03;95088.28;5015013;28;20435;-84
2023/05/20 08:43:04;;;;;;;12.83;7.80;;;;;;;24.52;57.34;95088.63;5015143;28;20436;-84
2023/05/20 08:45:33;;;;;;;11.67;8.70;;;;;;;24.71;53.62;95087.75;5015241;28;20502;-85
2023/05/20 08:48:00;;;;;;;8.37;7.30;;;;;;;24.63;50.80;95088.81;5015033;28;20923;-85
2023/05/20 08:50:27;;;;;;;9.60;6.70;;;;;;;24.57;51.74;95092.31;5015138;28;21003;-85
2023/05/20 08:52:54;;;;;;;8.83;8.03;;;;;;;24.22;52.21;95096.28;5015425;28;20497;-86
2023/05/20 08:55:25;;;;;;;11.73;9.17;;;;;;;24.50;55.22;95082.66;5015082;28;20436;-86
2023/05/20 08:57:53;;;;;;;9.83;7.70;;;;;;;24.67;58.87;95098.06;5015379;28;20490;-86
2023/05/20 09:00:22;;;;;;;9.63;7.33;;;;;;;24.57;51.39;95092.31;5015307;28;20922;-86
2023/05/20 09:02:50;;;;;;;8.80;7.90;;;;;;;24.84;55.33;95078.78;5015073;28;20446;-86
2023/05/20 09:05:18;;;;;;;10.73;8.20;;;;;;;25.01;54.54;95078.13;5014947;28;20498;-85
2023/05/20 09:07:44;;;;;;;10.00;8.70;;;;;;;25.16;51.75;95077.84;5012757;28;20479;-87
2023/05/20 09:10:11;;;;;;;12.43;8.23;;;;;;;25.05;50.78;95061.59;5013818;28;20447;-83
2023/05/20 09:12:39;;;;;;;15.10;7.60;;;;;;;25.13;49.96;95064.00;5013898;28;20455;-85
2023/05/20 09:15:08;;;;;;;8.70;7.10;;;;;;;24.53;52.14;95066.94;5014347;28;20483;-86
2023/05/20 09:17:40;;;;;;;9.10;6.90;;;;;;;24.32;49.96;95065.38;5014180;28;20475;-86
2023/05/20 09:20:08;;;;;;;8.33;7.63;;;;;;;24.12;55.87;95067.25;5014165;28;20804;-86
2023/05/20 09:22:35;;;;;;;8.53;7.63;;;;;;;24.14;55.79;95057.13;4979675;28;20538;-85
2023/05/20 09:25:02;;;;;;;12.43;7.77;;;;;;;24.40;52.83;95058.94;5013865;28;20521;-85
2023/05/20 09:27:29;;;;;;;14.00;7.43;;;;;;;24.61;53.80;95060.53;5014339;28;20435;-85
2023/05/20 09:29:57;;;;;;;11.60;7.20;;;;;;;24.65;53.39;95051.03;5014538;28;20431;-85
2023/05/20 09:32:26;;;;;;;9.03;7.20;;;;;;;24.11;49.65;95049.50;5013872;28;20482;-85
2023/05/20 09:34:53;;;;;;;12.97;7.50;;;;;;;24.06;52.73;95047.47;5014390;28;20427;-85
2023/05/20 09:37:22;;;;;;;8.57;7.40;;;;;;;23.86;50.30;95045.84;5014290;28;20849;-86
2023/05/20 09:39:59;;;;;;;12.83;9.00;;;;;;;23.67;51.67;95036.75;5014200;28;20925;-83
2023/05/20 09:42:27;;;;;;;11.13;7.00;;;;;;;23.71;52.88;95038.84;5013986;28;20979;-84
2023/05/20 09:44:56;;;;;;;9.73;7.77;;;;;;;23.84;52.77;95039.84;5013785;28;20953;-84
2023/05/20 09:47:25;;;;;;;10.40;8.07;;;;;;;23.79;52.14;95038.63;5013779;28;20787;-84
2023/05/20 09:49:52;;;;;;;8.13;7.23;;;;;;;23.53;52.38;95041.28;4995970;28;20466;-85
2023/05/20 09:52:19;;;;;;;7.33;6.63;;;;;;;23.41;54.06;95033.03;5014227;28;20967;-84
2023/05/20 09:54:48;;;;;;;10.67;8.20;;;;;;;23.16;54.26;95032.81;5014384;28;20445;-84
2023/05/20 09:57:14;;;;;;;13.33;8.30;;;;;;;22.98;54.64;95021.88;5013923;28;20442;-84
2023/05/20 09:59:42;;;;;;;11.10;8.40;;;;;;;22.94;57.70;95020.63;5013778;28;20486;-84
2023/05/20 10:02:09;;;;;;;12.80;7.10;;;;;;;22.92;55.72;95024.53;5013666;28;20497;-85
2023/05/20 10:04:42;;;;;;;11.50;7.70;;;;;;;22.84;56.44;95018.34;5013925;28;20473;-85
2023/05/20 10:07:35;;;;;;;9.40;8.20;;;;;;;22.85;55.01;95016.50;5014521;28;20459;-85
2023/05/20 10:10:13;;;;;;;8.40;5.87;;;;;;;23.07;56.97;95022.50;5021354;28;20432;-83
2023/05/20 10:12:51;;;;;;;9.20;6.70;;;;;;;23.30;55.32;95008.72;5014709;28;20480;-86
2023/05/20 10:15:26;;;;;;;9.87;6.47;;;;;;;23.49;55.43;94995.34;5013681;28;20853;-86
2023/05/20 10:28:08;;;;;;;43.33;15.23;;;;;;;23.41;53.90;94984.00;5013095;28;20437;-85
2023/05/20 10:30:35;;;;;;;8.23;7.40;;;;;;;23.48;53.77;94995.56;4979368;28;20453;-86
2023/05/20 10:33:06;;;;;;;115.73;74.43;;;;;;;23.42;54.14;94988.34;4995216;28;20983;-86
2023/05/20 10:35:33;;;;;;;91.73;61.67;;;;;;;23.49;51.67;94981.94;5013804;28;20533;-85
2023/05/20 10:38:09;;;;;;;158.63;121.13;;;;;;;23.36;50.67;94981.94;5013650;28;20484;-85
2023/05/20 10:40:36;;;;;;;440.77;321.93;;;;;;;23.07;52.69;94980.50;5013998;28;20425;-86
2023/05/20 10:43:11;;;;;;;971.27;685.93;;;;;;;23.16;55.98;94973.09;5013387;28;20843;-86
2023/05/20 10:45:49;;;;;;;185.83;107.47;;;;;;;23.15;51.51;94966.09;4982687;28;20892;-84
2023/05/20 10:48:21;;;;;;;77.17;47.17;;;;;;;22.99;53.27;94966.50;5017347;28;20532;-86
2023/05/20 10:50:49;;;;;;;190.00;102.23;;;;;;;23.01;53.18;94965.25;5017617;28;21016;-85
2023/05/20 10:53:15;;;;;;;133.20;79.97;;;;;;;23.09;53.83;94969.56;5017353;28;20527;-85
2023/05/20 10:55:51;;;;;;;133.67;86.53;;;;;;;23.04;61.00;94967.50;5016947;28;20851;-85
2023/05/20 10:58:19;;;;;;;48.17;30.83;;;;;;;23.05;52.64;94969.16;5016946;28;21074;-85
2023/05/20 11:00:47;;;;;;;66.77;38.57;;;;;;;22.93;50.79;94951.25;5016715;28;20791;-86
2023/05/20 11:03:17;;;;;;;47.27;32.33;;;;;;;23.10;52.75;94952.47;5017066;28;20853;-85
2023/05/20 11:05:45;;;;;;;8.30;6.87;;;;;;;23.24;49.23;94964.03;5018498;28;20859;-85
2023/05/20 11:08:12;;;;;;;23.10;13.70;;;;;;;23.03;50.48;94968.53;5017796;28;20453;-83
2023/05/20 11:10:39;;;;;;;82.20;49.07;;;;;;;22.93;52.63;94964.63;5017137;28;20842;-85
2023/05/20 11:13:07;;;;;;;117.23;68.00;;;;;;;22.80;54.48;94968.06;5017207;28;20433;-83
2023/05/20 11:15:35;;;;;;;14.37;10.80;;;;;;;22.59;50.72;94960.22;5016427;28;20523;-83
2023/05/20 11:18:03;;;;;;;57.57;35.07;;;;;;;22.57;53.35;94963.09;5016726;28;20453;-82
2023/05/20 11:20:34;;;;;;;51.80;29.10;;;;;;;22.64;52.71;94961.25;5016871;28;20457;-85
2023/05/20 11:23:02;;;;;;;56.20;30.03;;;;;;;22.58;52.69;94955.91;5017182;28;20473;-83
2023/05/20 11:25:28;;;;;;;14.13;11.60;;;;;;;22.47;51.79;94952.78;5016735;28;20517;-84
2023/05/20 11:27:55;;;;;;;17.00;11.23;;;;;;;22.44;52.78;94947.00;5016261;28;20452;-84
2023/05/20 11:30:22;;;;;;;34.30;18.70;;;;;;;22.48;56.85;94956.28;5016111;28;20452;-83
2023/05/20 11:33:00;;;;;;;104.53;55.90;;;;;;;22.64;56.17;94947.06;5016073;28;20492;-84
2023/05/20 11:35:32;;;;;;;11.50;9.43;;;;;;;22.73;52.43;94932.47;5016515;28;20456;-84
2023/05/20 11:38:03;;;;;;;229.27;143.53;;;;;;;22.66;58.06;94939.66;5016057;28;20477;-85
2023/05/20 11:40:32;;;;;;;25.70;16.70;;;;;;;22.70;53.35;94925.66;5016655;28;20441;-84
2023/05/20 11:43:00;;;;;;;9.90;6.80;;;;;;;22.64;53.12;94939.88;4982478;28;20499;-84
2023/05/20 11:45:27;;;;;;;20.73;6.17;;;;;;;22.09;53.09;94930.25;5016250;28;20533;-84
2023/05/20 11:48:05;;;;;;;8.33;7.37;;;;;;;22.05;54.80;94929.81;5015978;28;20541;-85
2023/05/20 11:50:35;;;;;;;10.47;7.63;;;;;;;22.06;54.05;94925.28;5016200;28;20513;-84
2023/05/20 11:53:03;;;;;;;6.63;6.03;;;;;;;22.07;53.87;94913.59;5016197;28;20524;-85
2023/05/20 11:55:32;;;;;;;12.50;11.13;;;;;;;22.16;53.85;94923.88;5015961;28;20787;-85
2023/05/20 11:58:00;;;;;;;26.43;18.57;;;;;;;22.13;54.77;94910.94;5015757;28;20533;-85
2023/05/20 12:00:27;;;;;;;12.53;10.50;;;;;;;22.10;54.36;94923.88;5016022;28;20457;-85
2023/05/20 12:02:54;;;;;;;12.63;8.80;;;;;;;22.06;55.24;94926.13;5016178;28;20498;-85
2023/05/20 12:05:23;;;;;;;7.43;6.17;;;;;;;22.00;55.88;94921.56;5016171;28;20524;-85
2023/05/20 12:07:50;;;;;;;8.33;7.30;;;;;;;21.91;55.44;94912.03;5015700;28;20537;-85
2023/05/20 12:10:16;;;;;;;11.00;6.47;;;;;;;21.77;55.06;94913.00;5015733;28;20845;-84
2023/05/20 12:12:44;;;;;;;8.63;6.90;;;;;;;21.68;56.12;94916.84;5020521;28;20458;-85
2023/05/20 12:15:11;;;;;;;14.70;9.47;;;;;;;21.69;58.98;94908.66;5001930;28;20517;-85
2023/05/20 12:17:46;;;;;;;7.73;6.43;;;;;;;21.27;58.54;94952.34;5019140;28;21007;-85
2023/05/20 12:20:15;;;;;;;7.40;5.50;;;;;;;20.40;59.04;94955.22;5015514;28;20583;-84
2023/05/20 12:22:44;;;;;;;8.53;5.53;;;;;;;19.98;60.20;94966.59;5016651;28;20436;-85
2023/05/20 12:25:12;;;;;;;10.63;4.30;;;;;;;19.46;62.57;94967.47;5015564;28;20985;-86
2023/05/20 12:27:39;;;;;;;5.70;5.20;;;;;;;19.05;66.68;94969.69;5015501;28;20435;-85
2023/05/20 12:30:08;;;;;;;7.40;5.80;;;;;;;18.70;69.36;94992.41;5015800;28;20535;-85
2023/05/20 12:32:35;;;;;;;5.60;4.67;;;;;;;18.59;71.24;94988.31;4997289;28;20478;-85
2023/05/20 12:35:02;;;;;;;7.80;5.97;;;;;;;18.45;70.56;94989.06;5015265;28;20508;-85